Thunder radar more information blitzortung!


Radar de pluja more information rain snow radar


Visita la nostra xarxa de llocs de meteo:

Template documentation
and downloads

And another site



No particular awareness of the weather is required.    There are no Weather-warnings

Pagina Historial Weather Underground text

Diari Resum Juny 29, 2017 Unitats:  Tant    Imperial   Mètric
« Previous Dia
SegĂźent Dia »
Diari Setmana Mensual Anual Personalitzada
  Maxima: Minima: Media:
Temperatura: TemperatureC °F /  -17.8 °C 15.1 °F /  -9.4 °C 22.4 °F /  -5.3 °C
Punt de rosada: DewpointC °F /  -17.8 °C 1.9 °F /  -16.7 °C 6.5 °F /  -14.2 °C
Humitat: Humidity % 22 % 38 %
Wind Speed: WindSpeedKMH mph /  0 km/h - 9.1 mph /  14.6 km/h
RĂ fegues de vent: WindSpeedGustKMH mph /  0 km/h - -
Vent:- - SW
Pression baro: PressurehPa in /  0 hPa 1005.0 in /  34029.3 hPa -
Precipitacions: 0.0 in /  0 mm    
Historical Graphs
 
 
Dades de taula per Juny 29, 2017
Temps Temperatura Punt de rosada Pression baro Vent Wind Speed RĂ fegues de vent Humitat Rainfall Rate (Hourly)
TemperatureC °F /  -17.8 °C DewpointC °F /  -17.8 °C PressurehPa in /  0 hPa Calm     Humidity % HourlyPrecipMM in /  0 mm
00:00 18.8 °F /  -7.3 °C 12.8 °F /  -10.7 °C 1005.0 in /  34029.3 hPa NNE 7.4 mph /  11.9 km/h 7.4 mph /  11.9 km/h 68 % 0.0 in /  0 mm
00:05 18.8 °F /  -7.3 °C 13.0 °F /  -10.6 °C 1005.0 in /  34029.3 hPa ENE 5.6 mph /  9 km/h 5.6 mph /  9 km/h 69 % 0.0 in /  0 mm
00:06 18.8 °F /  -7.3 °C 13.0 °F /  -10.6 °C 1005.0 in /  34029.3 hPa NNE 6.4 mph /  10.3 km/h 6.4 mph /  10.3 km/h 69 % 0.0 in /  0 mm
00:15 15.8 °F /  -9 °C 11.8 °F /  -11.2 °C 1005.0 in /  34029.3 hPa SW 1.6 mph /  2.6 km/h 3.2 mph /  5.1 km/h 77 % 0.0 in /  0 mm
00:25 15.6 °F /  -9.1 °C 11.4 °F /  -11.4 °C 1005.0 in /  34029.3 hPa SW 1.6 mph /  2.6 km/h 3.2 mph /  5.1 km/h 76 % 0.0 in /  0 mm
00:35 15.5 °F /  -9.2 °C 11.3 °F /  -11.5 °C 1005.0 in /  34029.3 hPa SW 3.2 mph /  5.1 km/h 3.2 mph /  5.1 km/h 76 % 0.0 in /  0 mm
00:45 15.8 °F /  -9 °C 11.2 °F /  -11.6 °C 1005.0 in /  34029.3 hPa WSW 3.2 mph /  5.1 km/h 4.8 mph /  7.7 km/h 74 % 0.0 in /  0 mm
00:55 16.0 °F /  -8.9 °C 11.4 °F /  -11.4 °C 1005.0 in /  34029.3 hPa WSW 1.6 mph /  2.6 km/h 3.2 mph /  5.1 km/h 74 % 0.0 in /  0 mm
01:05 15.8 °F /  -9 °C 11.2 °F /  -11.6 °C 1005.0 in /  34029.3 hPa Calm   1.6 mph /  2.6 km/h 74 % 0.0 in /  0 mm
01:15 15.5 °F /  -9.2 °C 10.9 °F /  -11.7 °C 1006.0 in /  34063.2 hPa Calm   3.2 mph /  5.1 km/h 74 % 0.0 in /  0 mm
01:25 15.4 °F /  -9.2 °C 11.0 °F /  -11.7 °C 1006.0 in /  34063.2 hPa Calm   1.6 mph /  2.6 km/h 75 % 0.0 in /  0 mm
01:35 15.2 °F /  -9.3 °C 10.6 °F /  -11.9 °C 1006.0 in /  34063.2 hPa West 1.6 mph /  2.6 km/h 4.8 mph /  7.7 km/h 74 % 0.0 in /  0 mm
01:45 15.1 °F /  -9.4 °C 10.5 °F /  -11.9 °C 1006.0 in /  34063.2 hPa WSW 1.6 mph /  2.6 km/h 4.8 mph /  7.7 km/h 74 % 0.0 in /  0 mm
01:55 15.6 °F /  -9.1 °C 11.0 °F /  -11.7 °C 1006.0 in /  34063.2 hPa NNE 3.2 mph /  5.1 km/h 3.2 mph /  5.1 km/h 74 % 0.0 in /  0 mm
02:05 16.4 °F /  -8.7 °C 10.9 °F /  -11.7 °C 1006.0 in /  34063.2 hPa East 3.2 mph /  5.1 km/h 4.8 mph /  7.7 km/h 70 % 0.0 in /  0 mm
02:15 16.7 °F /  -8.5 °C 10.6 °F /  -11.9 °C 1006.0 in /  34063.2 hPa SE 3.2 mph /  5.1 km/h 4.8 mph /  7.7 km/h 67 % 0.0 in /  0 mm
02:25 17.4 °F /  -8.1 °C 10.3 °F /  -12.1 °C 1006.0 in /  34063.2 hPa ENE 3.2 mph /  5.1 km/h 4.8 mph /  7.7 km/h 63 % 0.0 in /  0 mm
02:35 17.2 °F /  -8.2 °C 10.3 °F /  -12.1 °C 1006.0 in /  34063.2 hPa ENE 3.2 mph /  5.1 km/h 4.8 mph /  7.7 km/h 64 % 0.0 in /  0 mm
02:45 17.8 °F /  -7.9 °C 10.7 °F /  -11.8 °C 1006.0 in /  34063.2 hPa SSE 1.6 mph /  2.6 km/h 4.8 mph /  7.7 km/h 63 % 0.0 in /  0 mm
02:55 18.0 °F /  -7.8 °C 10.6 °F /  -11.9 °C 1006.0 in /  34063.2 hPa SSE 1.6 mph /  2.6 km/h 3.2 mph /  5.1 km/h 62 % 0.0 in /  0 mm
03:05 18.2 °F /  -7.7 °C 10.6 °F /  -11.9 °C 1006.0 in /  34063.2 hPa WSW 3.2 mph /  5.1 km/h 4.8 mph /  7.7 km/h 61 % 0.0 in /  0 mm
03:15 18.3 °F /  -7.6 °C 10.4 °F /  -12 °C 1007.0 in /  34097 hPa West 3.2 mph /  5.1 km/h 8.0 mph /  12.9 km/h 60 % 0.0 in /  0 mm
03:25 18.3 °F /  -7.6 °C 9.9 °F /  -12.3 °C 1006.0 in /  34063.2 hPa West 4.8 mph /  7.7 km/h 6.4 mph /  10.3 km/h 58 % 0.0 in /  0 mm
03:35 18.6 °F /  -7.4 °C 9.9 °F /  -12.3 °C 1006.0 in /  34063.2 hPa West 8.0 mph /  12.9 km/h 9.7 mph /  15.6 km/h 57 % 0.0 in /  0 mm
03:45 18.7 °F /  -7.4 °C 9.7 °F /  -12.4 °C 1006.0 in /  34063.2 hPa WSW 4.8 mph /  7.7 km/h 4.8 mph /  7.7 km/h 56 % 0.0 in /  0 mm
03:55 18.7 °F /  -7.4 °C 9.4 °F /  -12.6 °C 1007.0 in /  34097 hPa WSW 9.7 mph /  15.6 km/h 11.3 mph /  18.2 km/h 55 % 0.0 in /  0 mm
04:05 18.9 °F /  -7.3 °C 9.4 °F /  -12.6 °C 1007.0 in /  34097 hPa West 3.2 mph /  5.1 km/h 9.7 mph /  15.6 km/h 54 % 0.0 in /  0 mm
04:15 19.4 °F /  -7 °C 9.6 °F /  -12.4 °C 1007.0 in /  34097 hPa West 4.8 mph /  7.7 km/h 9.7 mph /  15.6 km/h 53 % 0.0 in /  0 mm
04:25 19.7 °F /  -6.8 °C 9.6 °F /  -12.4 °C 1007.0 in /  34097 hPa West 4.8 mph /  7.7 km/h 9.7 mph /  15.6 km/h 52 % 0.0 in /  0 mm
04:35 19.5 °F /  -6.9 °C 8.8 °F /  -12.9 °C 1007.0 in /  34097 hPa WSW 4.8 mph /  7.7 km/h 17.7 mph /  28.5 km/h 50 % 0.0 in /  0 mm
04:45 20.1 °F /  -6.6 °C 9.3 °F /  -12.6 °C 1007.0 in /  34097 hPa WSW 4.8 mph /  7.7 km/h 9.7 mph /  15.6 km/h 50 % 0.0 in /  0 mm
04:55 20.2 °F /  -6.6 °C 9.2 °F /  -12.7 °C 1007.0 in /  34097 hPa WSW 4.8 mph /  7.7 km/h 12.9 mph /  20.8 km/h 49 % 0.0 in /  0 mm
05:05 20.6 °F /  -6.3 °C 9.5 °F /  -12.5 °C 1007.0 in /  34097 hPa West 4.8 mph /  7.7 km/h 6.4 mph /  10.3 km/h 49 % 0.0 in /  0 mm
05:15 21.1 °F /  -6.1 °C 9.7 °F /  -12.4 °C 1007.0 in /  34097 hPa WSW 3.2 mph /  5.1 km/h 4.8 mph /  7.7 km/h 48 % 0.0 in /  0 mm
05:25 21.5 °F /  -5.8 °C 9.7 °F /  -12.4 °C 1007.0 in /  34097 hPa West 4.8 mph /  7.7 km/h 12.9 mph /  20.8 km/h 47 % 0.0 in /  0 mm
05:35 22.0 °F /  -5.6 °C 9.8 °F /  -12.3 °C 1007.0 in /  34097 hPa West 4.8 mph /  7.7 km/h 6.4 mph /  10.3 km/h 46 % 0.0 in /  0 mm
05:45 22.6 °F /  -5.2 °C 10.1 °F /  -12.2 °C 1006.0 in /  34063.2 hPa West 9.7 mph /  15.6 km/h 9.7 mph /  15.6 km/h 45 % 0.0 in /  0 mm
05:55 22.5 °F /  -5.3 °C 8.9 °F /  -12.8 °C 1006.0 in /  34063.2 hPa WSW 4.8 mph /  7.7 km/h 12.9 mph /  20.8 km/h 42 % 0.0 in /  0 mm
06:05 22.8 °F /  -5.1 °C 8.5 °F /  -13.1 °C 1006.0 in /  34063.2 hPa WSW 3.2 mph /  5.1 km/h 8.0 mph /  12.9 km/h 40 % 0.0 in /  0 mm
06:15 22.7 °F /  -5.2 °C 8.0 °F /  -13.3 °C 1006.0 in /  34063.2 hPa WSW 8.0 mph /  12.9 km/h 12.9 mph /  20.8 km/h 39 % 0.0 in /  0 mm
11:16 23.0 °F /  -5 °C 7.9 °F /  -13.4 °C 1006.0 in /  34063.2 hPa SW 33.3 mph /  53.6 km/h 33.3 mph /  53.6 km/h 38 % 0.0 in /  0 mm
11:21 23.0 °F /  -5 °C 7.5 °F /  -13.6 °C 1006.0 in /  34063.2 hPa WNW 11.9 mph /  19.2 km/h 11.9 mph /  19.2 km/h 37 % 0.0 in /  0 mm
11:26 23.3 °F /  -4.8 °C 7.8 °F /  -13.4 °C 1006.0 in /  34063.2 hPa SW 13.0 mph /  20.9 km/h 13.0 mph /  20.9 km/h 37 % 0.0 in /  0 mm
11:31 23.1 °F /  -4.9 °C 7.6 °F /  -13.6 °C 1006.0 in /  34063.2 hPa SW 20.4 mph /  32.8 km/h 20.4 mph /  32.8 km/h 37 % 0.0 in /  0 mm
11:36 23.4 °F /  -4.8 °C 7.9 °F /  -13.4 °C 1006.0 in /  34063.2 hPa WSW 14.8 mph /  23.8 km/h 14.8 mph /  23.8 km/h 37 % 0.0 in /  0 mm
11:41 23.5 °F /  -4.7 °C 7.9 °F /  -13.4 °C 1006.0 in /  34063.2 hPa WSW 9.3 mph /  15 km/h 9.3 mph /  15 km/h 37 % 0.0 in /  0 mm
11:46 24.0 °F /  -4.4 °C 8.4 °F /  -13.1 °C 1006.0 in /  34063.2 hPa East 7.4 mph /  11.9 km/h 7.4 mph /  11.9 km/h 37 % 0.0 in /  0 mm
11:51 24.2 °F /  -4.3 °C 8.2 °F /  -13.2 °C 1006.0 in /  34063.2 hPa SW 13.0 mph /  20.9 km/h 13.0 mph /  20.9 km/h 36 % 0.0 in /  0 mm
11:56 24.3 °F /  -4.3 °C 8.7 °F /  -12.9 °C 1006.0 in /  34063.2 hPa West 6.4 mph /  10.3 km/h 6.4 mph /  10.3 km/h 37 % 0.0 in /  0 mm
12:01 23.9 °F /  -4.5 °C 7.9 °F /  -13.4 °C 1006.0 in /  34063.2 hPa WSW 11.1 mph /  17.9 km/h 11.1 mph /  17.9 km/h 36 % 0.0 in /  0 mm
12:06 24.3 °F /  -4.3 °C 7.8 °F /  -13.4 °C 1006.0 in /  34063.2 hPa SW 12.2 mph /  19.6 km/h 12.2 mph /  19.6 km/h 35 % 0.0 in /  0 mm
12:11 24.2 °F /  -4.3 °C 7.3 °F /  -13.7 °C 1006.0 in /  34063.2 hPa WSW 13.0 mph /  20.9 km/h 13.0 mph /  20.9 km/h 34 % 0.0 in /  0 mm
12:16 24.4 °F /  -4.2 °C 7.5 °F /  -13.6 °C 1006.0 in /  34063.2 hPa SW 13.0 mph /  20.9 km/h 13.0 mph /  20.9 km/h 34 % 0.0 in /  0 mm
12:17 24.5 °F /  -4.2 °C 7.6 °F /  -13.6 °C 1006.0 in /  34063.2 hPa West 10.0 mph /  16.1 km/h 10.0 mph /  16.1 km/h 34 % 0.0 in /  0 mm
12:22 24.1 °F /  -4.4 °C 6.4 °F /  -14.2 °C 1006.0 in /  34063.2 hPa West 12.6 mph /  20.3 km/h 12.6 mph /  20.3 km/h 32 % 0.0 in /  0 mm
12:27 24.4 °F /  -4.2 °C 6.6 °F /  -14.1 °C 1006.0 in /  34063.2 hPa SW 7.4 mph /  11.9 km/h 7.4 mph /  11.9 km/h 32 % 0.0 in /  0 mm
12:32 24.6 °F /  -4.1 °C 7.3 °F /  -13.7 °C 1006.0 in /  34063.2 hPa SSW 14.8 mph /  23.8 km/h 14.8 mph /  23.8 km/h 33 % 0.0 in /  0 mm
12:37 24.7 °F /  -4.1 °C 6.9 °F /  -13.9 °C 1006.0 in /  34063.2 hPa WNW 13.0 mph /  20.9 km/h 13.0 mph /  20.9 km/h 32 % 0.0 in /  0 mm
12:42 24.6 °F /  -4.1 °C 6.3 °F /  -14.3 °C 1006.0 in /  34063.2 hPa SW 13.0 mph /  20.9 km/h 13.0 mph /  20.9 km/h 31 % 0.0 in /  0 mm
12:47 24.5 °F /  -4.2 °C 6.3 °F /  -14.3 °C 1006.0 in /  34063.2 hPa WSW 14.8 mph /  23.8 km/h 14.8 mph /  23.8 km/h 31 % 0.0 in /  0 mm
12:52 24.3 °F /  -4.3 °C 6.1 °F /  -14.4 °C 1006.0 in /  34063.2 hPa WNW 11.1 mph /  17.9 km/h 11.1 mph /  17.9 km/h 31 % 0.0 in /  0 mm
12:57 25.0 °F /  -3.9 °C 6.2 °F /  -14.3 °C 1006.0 in /  34063.2 hPa West 7.6 mph /  12.2 km/h 7.6 mph /  12.2 km/h 30 % 0.0 in /  0 mm
13:02 25.2 °F /  -3.8 °C 6.9 °F /  -13.9 °C 1006.0 in /  34063.2 hPa WSW 9.3 mph /  15 km/h 9.3 mph /  15 km/h 31 % 0.0 in /  0 mm
13:07 25.3 °F /  -3.7 °C 6.9 °F /  -13.9 °C 1006.0 in /  34063.2 hPa West 14.8 mph /  23.8 km/h 14.8 mph /  23.8 km/h 31 % 0.0 in /  0 mm
13:12 25.4 °F /  -3.7 °C 6.6 °F /  -14.1 °C 1006.0 in /  34063.2 hPa WSW 16.9 mph /  27.2 km/h 16.9 mph /  27.2 km/h 30 % 0.0 in /  0 mm
13:17 25.3 °F /  -3.7 °C 6.4 °F /  -14.2 °C 1006.0 in /  34063.2 hPa West 14.0 mph /  22.5 km/h 14.0 mph /  22.5 km/h 30 % 0.0 in /  0 mm
13:22 25.5 °F /  -3.6 °C 6.7 °F /  -14.1 °C 1006.0 in /  34063.2 hPa SW 9.7 mph /  15.6 km/h 9.7 mph /  15.6 km/h 30 % 0.0 in /  0 mm
13:27 25.3 °F /  -3.7 °C 6.0 °F /  -14.4 °C 1006.0 in /  34063.2 hPa WSW 12.6 mph /  20.3 km/h 12.6 mph /  20.3 km/h 29 % 0.0 in /  0 mm
13:32 25.4 °F /  -3.7 °C 6.1 °F /  -14.4 °C 1006.0 in /  34063.2 hPa West 13.0 mph /  20.9 km/h 13.0 mph /  20.9 km/h 29 % 0.0 in /  0 mm
13:37 26.0 °F /  -3.3 °C 6.6 °F /  -14.1 °C 1006.0 in /  34063.2 hPa NNW 5.6 mph /  9 km/h 5.8 mph /  9.3 km/h 29 % 0.0 in /  0 mm
13:42 25.3 °F /  -3.7 °C 6.0 °F /  -14.4 °C 1006.0 in /  34063.2 hPa WNW 14.8 mph /  23.8 km/h 14.8 mph /  23.8 km/h 29 % 0.0 in /  0 mm
13:47 25.2 °F /  -3.8 °C 5.4 °F /  -14.8 °C 1006.0 in /  34063.2 hPa WSW 20.4 mph /  32.8 km/h 20.4 mph /  32.8 km/h 28 % 0.0 in /  0 mm
13:52 25.5 °F /  -3.6 °C 5.7 °F /  -14.6 °C 1006.0 in /  34063.2 hPa WSW 12.2 mph /  19.6 km/h 12.2 mph /  19.6 km/h 28 % 0.0 in /  0 mm
13:57 25.5 °F /  -3.6 °C 5.7 °F /  -14.6 °C 1007.0 in /  34097 hPa West 14.8 mph /  23.8 km/h 14.8 mph /  23.8 km/h 28 % 0.0 in /  0 mm
14:02 25.7 °F /  -3.5 °C 5.8 °F /  -14.6 °C 1007.0 in /  34097 hPa West 13.0 mph /  20.9 km/h 13.0 mph /  20.9 km/h 28 % 0.0 in /  0 mm
14:07 25.9 °F /  -3.4 °C 6.0 °F /  -14.4 °C 1007.0 in /  34097 hPa WSW 7.4 mph /  11.9 km/h 7.4 mph /  11.9 km/h 28 % 0.0 in /  0 mm
14:12 26.1 °F /  -3.3 °C 6.2 °F /  -14.3 °C 1007.0 in /  34097 hPa SW 11.1 mph /  17.9 km/h 11.1 mph /  17.9 km/h 28 % 0.0 in /  0 mm
14:17 26.2 °F /  -3.2 °C 6.2 °F /  -14.3 °C 1007.0 in /  34097 hPa SW 9.3 mph /  15 km/h 9.3 mph /  15 km/h 28 % 0.0 in /  0 mm
14:22 25.9 °F /  -3.4 °C 6.0 °F /  -14.4 °C 1007.0 in /  34097 hPa West 15.6 mph /  25.1 km/h 15.6 mph /  25.1 km/h 28 % 0.0 in /  0 mm
14:27 25.9 °F /  -3.4 °C 5.4 °F /  -14.8 °C 1007.0 in /  34097 hPa WSW 16.7 mph /  26.9 km/h 16.7 mph /  26.9 km/h 27 % 0.0 in /  0 mm
14:32 25.9 °F /  -3.4 °C 5.4 °F /  -14.8 °C 1007.0 in /  34097 hPa SW 16.7 mph /  26.9 km/h 16.7 mph /  26.9 km/h 27 % 0.0 in /  0 mm
14:37 26.0 °F /  -3.3 °C 5.6 °F /  -14.7 °C 1007.0 in /  34097 hPa SSE 6.9 mph /  11.1 km/h 6.9 mph /  11.1 km/h 27 % 0.0 in /  0 mm
14:42 26.2 °F /  -3.2 °C 5.7 °F /  -14.6 °C 1007.0 in /  34097 hPa South 14.8 mph /  23.8 km/h 14.8 mph /  23.8 km/h 27 % 0.0 in /  0 mm
14:47 26.5 °F /  -3.1 °C 6.0 °F /  -14.4 °C 1007.0 in /  34097 hPa West 9.3 mph /  15 km/h 9.3 mph /  15 km/h 27 % 0.0 in /  0 mm
14:52 26.1 °F /  -3.3 °C 6.2 °F /  -14.3 °C 1007.0 in /  34097 hPa WSW 9.0 mph /  14.5 km/h 9.0 mph /  14.5 km/h 28 % 0.0 in /  0 mm
14:57 26.1 °F /  -3.3 °C 5.6 °F /  -14.7 °C 1007.0 in /  34097 hPa West 9.3 mph /  15 km/h 9.3 mph /  15 km/h 27 % 0.0 in /  0 mm
15:02 26.3 °F /  -3.2 °C 5.8 °F /  -14.6 °C 1007.0 in /  34097 hPa WSW 13.0 mph /  20.9 km/h 13.0 mph /  20.9 km/h 27 % 0.0 in /  0 mm
15:05 26.8 °F /  -2.9 °C 6.2 °F /  -14.3 °C 1007.0 in /  34097 hPa South 7.9 mph /  12.7 km/h 7.9 mph /  12.7 km/h 27 % 0.0 in /  0 mm
15:10 26.5 °F /  -3.1 °C 6.0 °F /  -14.4 °C 1007.0 in /  34097 hPa WSW 14.8 mph /  23.8 km/h 14.8 mph /  23.8 km/h 27 % 0.0 in /  0 mm
15:15 26.5 °F /  -3.1 °C 6.0 °F /  -14.4 °C 1006.0 in /  34063.2 hPa WNW 19.8 mph /  31.9 km/h 19.8 mph /  31.9 km/h 27 % 0.0 in /  0 mm
15:20 26.6 °F /  -3 °C 6.1 °F /  -14.4 °C 1006.0 in /  34063.2 hPa SW 20.4 mph /  32.8 km/h 20.4 mph /  32.8 km/h 27 % 0.0 in /  0 mm
15:25 26.5 °F /  -3.1 °C 5.4 °F /  -14.8 °C 1006.0 in /  34063.2 hPa WSW 13.0 mph /  20.9 km/h 13.0 mph /  20.9 km/h 26 % 0.0 in /  0 mm
15:30 26.5 °F /  -3.1 °C 6.0 °F /  -14.4 °C 1006.0 in /  34063.2 hPa South 14.8 mph /  23.8 km/h 14.8 mph /  23.8 km/h 27 % 0.0 in /  0 mm
15:35 25.8 °F /  -3.4 °C 5.4 °F /  -14.8 °C 1006.0 in /  34063.2 hPa SW 9.7 mph /  15.6 km/h 9.7 mph /  15.6 km/h 27 % 0.0 in /  0 mm
15:40 25.5 °F /  -3.6 °C 4.6 °F /  -15.2 °C 1006.0 in /  34063.2 hPa SSW 14.8 mph /  23.8 km/h 14.8 mph /  23.8 km/h 26 % 0.0 in /  0 mm
15:45 25.3 °F /  -3.7 °C 4.9 °F /  -15.1 °C 1006.0 in /  34063.2 hPa WSW 13.0 mph /  20.9 km/h 13.0 mph /  20.9 km/h 27 % 0.0 in /  0 mm
15:46 25.3 °F /  -3.7 °C 4.4 °F /  -15.3 °C 1006.0 in /  34063.2 hPa West 18.5 mph /  29.8 km/h 18.5 mph /  29.8 km/h 26 % 0.0 in /  0 mm
15:51 26.1 °F /  -3.3 °C 5.1 °F /  -14.9 °C 1006.0 in /  34063.2 hPa West 13.0 mph /  20.9 km/h 13.0 mph /  20.9 km/h 26 % 0.0 in /  0 mm
15:56 25.6 °F /  -3.6 °C 4.7 °F /  -15.2 °C 1006.0 in /  34063.2 hPa WSW 9.3 mph /  15 km/h 9.3 mph /  15 km/h 26 % 0.0 in /  0 mm
16:01 26.2 °F /  -3.2 °C 5.2 °F /  -14.9 °C 1006.0 in /  34063.2 hPa West 9.3 mph /  15 km/h 9.3 mph /  15 km/h 26 % 0.0 in /  0 mm
16:06 26.6 °F /  -3 °C 6.1 °F /  -14.4 °C 1006.0 in /  34063.2 hPa WSW 20.4 mph /  32.8 km/h 20.4 mph /  32.8 km/h 27 % 0.0 in /  0 mm
16:11 26.5 °F /  -3.1 °C 5.4 °F /  -14.8 °C 1006.0 in /  34063.2 hPa WSW 14.8 mph /  23.8 km/h 14.8 mph /  23.8 km/h 26 % 0.0 in /  0 mm
16:16 26.7 °F /  -2.9 °C 5.6 °F /  -14.7 °C 1006.0 in /  34063.2 hPa NNW 9.3 mph /  15 km/h 9.3 mph /  15 km/h 26 % 0.0 in /  0 mm
16:21 26.4 °F /  -3.1 °C 5.3 °F /  -14.8 °C 1006.0 in /  34063.2 hPa WSW 16.7 mph /  26.9 km/h 16.7 mph /  26.9 km/h 26 % 0.0 in /  0 mm
16:26 26.7 °F /  -2.9 °C 5.6 °F /  -14.7 °C 1006.0 in /  34063.2 hPa West 16.4 mph /  26.4 km/h 16.4 mph /  26.4 km/h 26 % 0.0 in /  0 mm
16:31 26.6 °F /  -3 °C 5.5 °F /  -14.7 °C 1006.0 in /  34063.2 hPa SW 9.5 mph /  15.3 km/h 9.5 mph /  15.3 km/h 26 % 0.0 in /  0 mm
16:36 26.5 °F /  -3.1 °C 5.4 °F /  -14.8 °C 1006.0 in /  34063.2 hPa NNW 16.7 mph /  26.9 km/h 16.7 mph /  26.9 km/h 26 % 0.0 in /  0 mm
16:41 26.4 °F /  -3.1 °C 5.3 °F /  -14.8 °C 1006.0 in /  34063.2 hPa NNW 16.7 mph /  26.9 km/h 16.7 mph /  26.9 km/h 26 % 0.0 in /  0 mm
16:46 25.7 °F /  -3.5 °C 4.7 °F /  -15.2 °C 1006.0 in /  34063.2 hPa West 9.3 mph /  15 km/h 9.3 mph /  15 km/h 26 % 0.0 in /  0 mm
16:51 26.2 °F /  -3.2 °C 5.2 °F /  -14.9 °C 1006.0 in /  34063.2 hPa WNW 18.5 mph /  29.8 km/h 18.5 mph /  29.8 km/h 26 % 0.0 in /  0 mm
16:56 26.6 °F /  -3 °C 4.9 °F /  -15.1 °C 1006.0 in /  34063.2 hPa SW 14.8 mph /  23.8 km/h 14.8 mph /  23.8 km/h 25 % 0.0 in /  0 mm
17:01 26.3 °F /  -3.2 °C 4.7 °F /  -15.2 °C 1006.0 in /  34063.2 hPa WSW 13.0 mph /  20.9 km/h 13.0 mph /  20.9 km/h 25 % 0.0 in /  0 mm
17:06 26.5 °F /  -3.1 °C 4.9 °F /  -15.1 °C 1006.0 in /  34063.2 hPa West 24.1 mph /  38.8 km/h 24.1 mph /  38.8 km/h 25 % 0.0 in /  0 mm
17:07 26.6 °F /  -3 °C 4.9 °F /  -15.1 °C 1006.0 in /  34063.2 hPa SW 9.3 mph /  15 km/h 9.3 mph /  15 km/h 25 % 0.0 in /  0 mm
17:12 26.9 °F /  -2.8 °C 5.2 °F /  -14.9 °C 1006.0 in /  34063.2 hPa WSW 16.9 mph /  27.2 km/h 16.9 mph /  27.2 km/h 25 % 0.0 in /  0 mm
17:17 26.5 °F /  -3.1 °C 4.9 °F /  -15.1 °C 1006.0 in /  34063.2 hPa SW 13.0 mph /  20.9 km/h 13.0 mph /  20.9 km/h 25 % 0.0 in /  0 mm
17:22 26.7 °F /  -2.9 °C 5.1 °F /  -14.9 °C 1006.0 in /  34063.2 hPa West 9.3 mph /  15 km/h 9.3 mph /  15 km/h 25 % 0.0 in /  0 mm
17:27 26.6 °F /  -3 °C 4.9 °F /  -15.1 °C 1006.0 in /  34063.2 hPa WNW 13.0 mph /  20.9 km/h 13.0 mph /  20.9 km/h 25 % 0.0 in /  0 mm
17:32 26.8 °F /  -2.9 °C 5.1 °F /  -14.9 °C 1006.0 in /  34063.2 hPa WSW 14.8 mph /  23.8 km/h 14.8 mph /  23.8 km/h 25 % 0.0 in /  0 mm
17:37 26.9 °F /  -2.8 °C 4.6 °F /  -15.2 °C 1006.0 in /  34063.2 hPa WSW 24.1 mph /  38.8 km/h 24.1 mph /  38.8 km/h 24 % 0.0 in /  0 mm
17:42 26.4 °F /  -3.1 °C 4.2 °F /  -15.4 °C 1006.0 in /  34063.2 hPa WSW 11.1 mph /  17.9 km/h 11.1 mph /  17.9 km/h 24 % 0.0 in /  0 mm
17:47 26.5 °F /  -3.1 °C 4.3 °F /  -15.4 °C 1006.0 in /  34063.2 hPa West 13.0 mph /  20.9 km/h 13.0 mph /  20.9 km/h 24 % 0.0 in /  0 mm
17:52 26.6 °F /  -3 °C 4.4 °F /  -15.3 °C 1006.0 in /  34063.2 hPa WSW 14.8 mph /  23.8 km/h 14.8 mph /  23.8 km/h 24 % 0.0 in /  0 mm
17:57 26.7 °F /  -2.9 °C 4.4 °F /  -15.3 °C 1005.0 in /  34029.3 hPa WSW 9.3 mph /  15 km/h 9.3 mph /  15 km/h 24 % 0.0 in /  0 mm
18:02 26.8 °F /  -2.9 °C 4.6 °F /  -15.2 °C 1005.0 in /  34029.3 hPa West 14.8 mph /  23.8 km/h 14.8 mph /  23.8 km/h 24 % 0.0 in /  0 mm
18:07 26.9 °F /  -2.8 °C 4.6 °F /  -15.2 °C 1005.0 in /  34029.3 hPa West 18.5 mph /  29.8 km/h 18.5 mph /  29.8 km/h 24 % 0.0 in /  0 mm
18:12 26.6 °F /  -3 °C 4.4 °F /  -15.3 °C 1006.0 in /  34063.2 hPa WSW 13.0 mph /  20.9 km/h 13.0 mph /  20.9 km/h 24 % 0.0 in /  0 mm
18:17 26.7 °F /  -2.9 °C 4.4 °F /  -15.3 °C 1006.0 in /  34063.2 hPa WSW 11.1 mph /  17.9 km/h 11.1 mph /  17.9 km/h 24 % 0.0 in /  0 mm
18:22 26.2 °F /  -3.2 °C 3.4 °F /  -15.9 °C 1006.0 in /  34063.2 hPa NW 14.8 mph /  23.8 km/h 14.8 mph /  23.8 km/h 23 % 0.0 in /  0 mm
18:27 26.5 °F /  -3.1 °C 3.7 °F /  -15.7 °C 1006.0 in /  34063.2 hPa SSW 14.8 mph /  23.8 km/h 14.8 mph /  23.8 km/h 23 % 0.0 in /  0 mm
18:32 26.4 °F /  -3.1 °C 3.6 °F /  -15.8 °C 1006.0 in /  34063.2 hPa WSW 22.2 mph /  35.7 km/h 22.2 mph /  35.7 km/h 23 % 0.0 in /  0 mm
18:37 26.1 °F /  -3.3 °C 2.7 °F /  -16.3 °C 1006.0 in /  34063.2 hPa West 14.8 mph /  23.8 km/h 14.8 mph /  23.8 km/h 22 % 0.0 in /  0 mm
18:42 26.1 °F /  -3.3 °C 2.7 °F /  -16.3 °C 1006.0 in /  34063.2 hPa WSW 11.1 mph /  17.9 km/h 11.1 mph /  17.9 km/h 22 % 0.0 in /  0 mm
18:47 26.1 °F /  -3.3 °C 2.7 °F /  -16.3 °C 1006.0 in /  34063.2 hPa West 14.8 mph /  23.8 km/h 14.8 mph /  23.8 km/h 22 % 0.0 in /  0 mm
18:52 26.0 °F /  -3.3 °C 2.6 °F /  -16.3 °C 1006.0 in /  34063.2 hPa West 15.1 mph /  24.3 km/h 15.1 mph /  24.3 km/h 22 % 0.0 in /  0 mm
18:57 25.9 °F /  -3.4 °C 2.6 °F /  -16.3 °C 1006.0 in /  34063.2 hPa West 9.3 mph /  15 km/h 9.3 mph /  15 km/h 22 % 0.0 in /  0 mm
19:02 25.9 °F /  -3.4 °C 2.6 °F /  -16.3 °C 1006.0 in /  34063.2 hPa WSW 11.1 mph /  17.9 km/h 11.1 mph /  17.9 km/h 22 % 0.0 in /  0 mm
19:07 26.0 °F /  -3.3 °C 2.6 °F /  -16.3 °C 1006.0 in /  34063.2 hPa SW 13.0 mph /  20.9 km/h 13.0 mph /  20.9 km/h 22 % 0.0 in /  0 mm
19:12 25.9 °F /  -3.4 °C 2.6 °F /  -16.3 °C 1006.0 in /  34063.2 hPa SW 13.0 mph /  20.9 km/h 13.0 mph /  20.9 km/h 22 % 0.0 in /  0 mm
19:17 25.8 °F /  -3.4 °C 2.4 °F /  -16.4 °C 1006.0 in /  34063.2 hPa SW 3.7 mph /  6 km/h 3.7 mph /  6 km/h 22 % 0.0 in /  0 mm
19:22 25.8 °F /  -3.4 °C 2.4 °F /  -16.4 °C 1006.0 in /  34063.2 hPa WNW 20.4 mph /  32.8 km/h 20.4 mph /  32.8 km/h 22 % 0.0 in /  0 mm
19:27 25.5 °F /  -3.6 °C 2.2 °F /  -16.6 °C 1006.0 in /  34063.2 hPa WNW 14.8 mph /  23.8 km/h 14.8 mph /  23.8 km/h 22 % 0.0 in /  0 mm
19:32 25.6 °F /  -3.6 °C 2.3 °F /  -16.5 °C 1006.0 in /  34063.2 hPa NW 14.8 mph /  23.8 km/h 14.8 mph /  23.8 km/h 22 % 0.0 in /  0 mm
19:35 18.8 °F /  -7.3 °C 8.2 °F /  -13.2 °C 1010.0 in /  34198.6 hPa East 3.2 mph /  5.1 km/h 6.4 mph /  10.3 km/h 50 % 0.0 in /  0 mm
19:37 25.6 °F /  -3.6 °C 2.3 °F /  -16.5 °C 1006.0 in /  34063.2 hPa WSW 9.3 mph /  15 km/h 9.3 mph /  15 km/h 22 % 0.0 in /  0 mm
19:42 25.5 °F /  -3.6 °C 2.2 °F /  -16.6 °C 1006.0 in /  34063.2 hPa West 7.4 mph /  11.9 km/h 7.4 mph /  11.9 km/h 22 % 0.0 in /  0 mm
19:45 18.6 °F /  -7.4 °C 7.7 °F /  -13.5 °C 1010.0 in /  34198.6 hPa East 3.2 mph /  5.1 km/h 4.8 mph /  7.7 km/h 49 % 0.0 in /  0 mm
19:47 25.6 °F /  -3.6 °C 2.9 °F /  -16.2 °C 1006.0 in /  34063.2 hPa WSW 7.4 mph /  11.9 km/h 7.4 mph /  11.9 km/h 23 % 0.0 in /  0 mm
19:52 25.5 °F /  -3.6 °C 2.8 °F /  -16.2 °C 1006.0 in /  34063.2 hPa WSW 13.0 mph /  20.9 km/h 13.0 mph /  20.9 km/h 23 % 0.0 in /  0 mm
19:55 18.5 °F /  -7.5 °C 7.6 °F /  -13.6 °C 1010.0 in /  34198.6 hPa East 8.0 mph /  12.9 km/h 8.0 mph /  12.9 km/h 49 % 0.0 in /  0 mm
19:57 25.3 °F /  -3.7 °C 2.1 °F /  -16.6 °C 1006.0 in /  34063.2 hPa West 9.3 mph /  15 km/h 9.3 mph /  15 km/h 22 % 0.0 in /  0 mm
20:02 25.3 °F /  -3.7 °C 2.1 °F /  -16.6 °C 1006.0 in /  34063.2 hPa SSE 5.6 mph /  9 km/h 5.6 mph /  9 km/h 22 % 0.0 in /  0 mm
20:05 18.5 °F /  -7.5 °C 7.6 °F /  -13.6 °C 1010.0 in /  34198.6 hPa ENE 3.2 mph /  5.1 km/h 9.7 mph /  15.6 km/h 49 % 0.0 in /  0 mm
20:07 25.1 °F /  -3.8 °C 1.9 °F /  -16.7 °C 1006.0 in /  34063.2 hPa SW 13.0 mph /  20.9 km/h 13.0 mph /  20.9 km/h 22 % 0.0 in /  0 mm
20:12 24.9 °F /  -3.9 °C 2.3 °F /  -16.5 °C 1006.0 in /  34063.2 hPa West 13.0 mph /  20.9 km/h 13.0 mph /  20.9 km/h 23 % 0.0 in /  0 mm
20:15 18.3 °F /  -7.6 °C 7.4 °F /  -13.7 °C 1009.0 in /  34164.7 hPa NE 3.2 mph /  5.1 km/h 4.8 mph /  7.7 km/h 49 % 0.0 in /  0 mm
20:17 24.8 °F /  -4 °C 2.2 °F /  -16.6 °C 1006.0 in /  34063.2 hPa SSE 7.4 mph /  11.9 km/h 7.4 mph /  11.9 km/h 23 % 0.0 in /  0 mm
20:22 24.7 °F /  -4.1 °C 2.2 °F /  -16.6 °C 1006.0 in /  34063.2 hPa WNW 12.2 mph /  19.6 km/h 12.2 mph /  19.6 km/h 23 % 0.0 in /  0 mm
20:25 18.2 °F /  -7.7 °C 7.3 °F /  -13.7 °C 1009.0 in /  34164.7 hPa NE 3.2 mph /  5.1 km/h 6.4 mph /  10.3 km/h 49 % 0.0 in /  0 mm
20:27 24.7 °F /  -4.1 °C 2.8 °F /  -16.2 °C 1006.0 in /  34063.2 hPa WSW 10.0 mph /  16.1 km/h 10.0 mph /  16.1 km/h 24 % 0.0 in /  0 mm
20:32 24.6 °F /  -4.1 °C 2.7 °F /  -16.3 °C 1006.0 in /  34063.2 hPa South 5.6 mph /  9 km/h 5.6 mph /  9 km/h 24 % 0.0 in /  0 mm
20:35 18.1 °F /  -7.7 °C 7.2 °F /  -13.8 °C 1009.0 in /  34164.7 hPa East 4.8 mph /  7.7 km/h 4.8 mph /  7.7 km/h 49 % 0.0 in /  0 mm
20:37 24.4 °F /  -4.2 °C 3.1 °F /  -16.1 °C 1006.0 in /  34063.2 hPa West 7.4 mph /  11.9 km/h 7.4 mph /  11.9 km/h 25 % 0.0 in /  0 mm
20:42 23.8 °F /  -4.6 °C 4.2 °F /  -15.4 °C 1006.0 in /  34063.2 hPa South 11.1 mph /  17.9 km/h 11.1 mph /  17.9 km/h 28 % 0.0 in /  0 mm
20:45 18.1 °F /  -7.7 °C 7.2 °F /  -13.8 °C 1010.0 in /  34198.6 hPa ESE 4.8 mph /  7.7 km/h 9.7 mph /  15.6 km/h 49 % 0.0 in /  0 mm
20:47 23.4 °F /  -4.8 °C 3.8 °F /  -15.7 °C 1006.0 in /  34063.2 hPa SW 12.2 mph /  19.6 km/h 12.2 mph /  19.6 km/h 28 % 0.0 in /  0 mm
20:52 23.2 °F /  -4.9 °C 4.2 °F /  -15.4 °C 1006.0 in /  34063.2 hPa SW 20.4 mph /  32.8 km/h 20.4 mph /  32.8 km/h 29 % 0.0 in /  0 mm
20:55 18.1 °F /  -7.7 °C 7.2 °F /  -13.8 °C 1010.0 in /  34198.6 hPa East 3.2 mph /  5.1 km/h 6.4 mph /  10.3 km/h 49 % 0.0 in /  0 mm
20:57 23.0 °F /  -5 °C 4.5 °F /  -15.3 °C 1007.0 in /  34097 hPa SW 13.0 mph /  20.9 km/h 13.0 mph /  20.9 km/h 30 % 0.0 in /  0 mm
21:02 22.8 °F /  -5.1 °C 4.8 °F /  -15.1 °C 1007.0 in /  34097 hPa SSW 13.0 mph /  20.9 km/h 13.0 mph /  20.9 km/h 31 % 0.0 in /  0 mm
21:05 18.0 °F /  -7.8 °C 6.8 °F /  -14 °C 1010.0 in /  34198.6 hPa ENE 4.8 mph /  7.7 km/h 8.0 mph /  12.9 km/h 48 % 0.0 in /  0 mm
21:07 22.6 °F /  -5.2 °C 4.6 °F /  -15.2 °C 1007.0 in /  34097 hPa SW 9.7 mph /  15.6 km/h 9.7 mph /  15.6 km/h 31 % 0.0 in /  0 mm
21:12 22.4 °F /  -5.3 °C 4.9 °F /  -15.1 °C 1007.0 in /  34097 hPa SW 7.4 mph /  11.9 km/h 7.4 mph /  11.9 km/h 32 % 0.0 in /  0 mm
21:15 17.9 °F /  -7.8 °C 6.7 °F /  -14.1 °C 1009.0 in /  34164.7 hPa NE 3.2 mph /  5.1 km/h 6.4 mph /  10.3 km/h 48 % 0.0 in /  0 mm
21:17 22.3 °F /  -5.4 °C 4.8 °F /  -15.1 °C 1007.0 in /  34097 hPa SSW 14.8 mph /  23.8 km/h 14.8 mph /  23.8 km/h 32 % 0.0 in /  0 mm
21:22 22.1 °F /  -5.5 °C 5.1 °F /  -14.9 °C 1007.0 in /  34097 hPa SW 11.1 mph /  17.9 km/h 11.1 mph /  17.9 km/h 33 % 0.0 in /  0 mm
21:25 17.7 °F /  -7.9 °C 6.8 °F /  -14 °C 1010.0 in /  34198.6 hPa NE 3.2 mph /  5.1 km/h 6.4 mph /  10.3 km/h 49 % 0.0 in /  0 mm
21:27 22.0 °F /  -5.6 °C 5.4 °F /  -14.8 °C 1007.0 in /  34097 hPa WSW 5.6 mph /  9 km/h 5.8 mph /  9.3 km/h 34 % 0.0 in /  0 mm
21:32 21.9 °F /  -5.6 °C 5.3 °F /  -14.8 °C 1007.0 in /  34097 hPa SW 11.1 mph /  17.9 km/h 11.1 mph /  17.9 km/h 34 % 0.0 in /  0 mm
21:35 17.6 °F /  -8 °C 6.8 °F /  -14 °C 1010.0 in /  34198.6 hPa NE 1.6 mph /  2.6 km/h 4.8 mph /  7.7 km/h 49 % 0.0 in /  0 mm
21:37 21.8 °F /  -5.7 °C 5.7 °F /  -14.6 °C 1007.0 in /  34097 hPa SW 9.3 mph /  15 km/h 9.3 mph /  15 km/h 35 % 0.0 in /  0 mm
21:42 21.6 °F /  -5.8 °C 5.5 °F /  -14.7 °C 1007.0 in /  34097 hPa SSW 9.3 mph /  15 km/h 9.3 mph /  15 km/h 35 % 0.0 in /  0 mm
21:45 17.5 °F /  -8.1 °C 6.7 °F /  -14.1 °C 1010.0 in /  34198.6 hPa Calm   4.8 mph /  7.7 km/h 49 % 0.0 in /  0 mm
21:47 21.5 °F /  -5.8 °C 5.8 °F /  -14.6 °C 1007.0 in /  34097 hPa SW 9.3 mph /  15 km/h 9.3 mph /  15 km/h 36 % 0.0 in /  0 mm
21:52 21.4 °F /  -5.9 °C 5.7 °F /  -14.6 °C 1007.0 in /  34097 hPa SW 7.4 mph /  11.9 km/h 7.4 mph /  11.9 km/h 36 % 0.0 in /  0 mm
21:55 17.3 °F /  -8.2 °C 6.5 °F /  -14.2 °C 1010.0 in /  34198.6 hPa Calm   1.6 mph /  2.6 km/h 49 % 0.0 in /  0 mm
21:57 21.3 °F /  -5.9 °C 6.0 °F /  -14.4 °C 1007.0 in /  34097 hPa SW 7.4 mph /  11.9 km/h 7.4 mph /  11.9 km/h 37 % 0.0 in /  0 mm
22:02 21.2 °F /  -6 °C 6.3 °F /  -14.3 °C 1007.0 in /  34097 hPa West 7.4 mph /  11.9 km/h 7.4 mph /  11.9 km/h 38 % 0.0 in /  0 mm
22:05 17.2 °F /  -8.2 °C 6.4 °F /  -14.2 °C 1010.0 in /  34198.6 hPa ENE 3.2 mph /  5.1 km/h 3.2 mph /  5.1 km/h 49 % 0.0 in /  0 mm
22:07 21.2 °F /  -6 °C 6.7 °F /  -14.1 °C 1007.0 in /  34097 hPa SW 7.4 mph /  11.9 km/h 7.4 mph /  11.9 km/h 39 % 0.0 in /  0 mm
22:12 21.0 °F /  -6.1 °C 6.5 °F /  -14.2 °C 1008.0 in /  34130.9 hPa WSW 9.3 mph /  15 km/h 9.3 mph /  15 km/h 39 % 0.0 in /  0 mm
22:15 17.0 °F /  -8.3 °C 6.2 °F /  -14.3 °C 1010.0 in /  34198.6 hPa ENE 1.6 mph /  2.6 km/h 3.2 mph /  5.1 km/h 49 % 0.0 in /  0 mm
22:17 20.9 °F /  -6.2 °C 6.8 °F /  -14 °C 1008.0 in /  34130.9 hPa SW 5.6 mph /  9 km/h 5.8 mph /  9.3 km/h 40 % 0.0 in /  0 mm
22:22 20.7 °F /  -6.3 °C 6.9 °F /  -13.9 °C 1008.0 in /  34130.9 hPa SW 7.4 mph /  11.9 km/h 7.4 mph /  11.9 km/h 41 % 0.0 in /  0 mm
22:25 16.9 °F /  -8.4 °C 6.7 °F /  -14.1 °C 1010.0 in /  34198.6 hPa NE 1.6 mph /  2.6 km/h 3.2 mph /  5.1 km/h 51 % 0.0 in /  0 mm
22:27 20.6 °F /  -6.3 °C 6.9 °F /  -13.9 °C 1007.0 in /  34097 hPa SW 7.4 mph /  11.9 km/h 7.4 mph /  11.9 km/h 41 % 0.0 in /  0 mm
22:32 20.6 °F /  -6.3 °C 7.2 °F /  -13.8 °C 1007.0 in /  34097 hPa SW 5.6 mph /  9 km/h 5.6 mph /  9 km/h 42 % 0.0 in /  0 mm
22:35 16.8 °F /  -8.4 °C 6.6 °F /  -14.1 °C 1010.0 in /  34198.6 hPa ENE 1.6 mph /  2.6 km/h 4.8 mph /  7.7 km/h 51 % 0.0 in /  0 mm
22:37 20.5 °F /  -6.4 °C 7.2 °F /  -13.8 °C 1007.0 in /  34097 hPa West 11.1 mph /  17.9 km/h 11.1 mph /  17.9 km/h 42 % 0.0 in /  0 mm
22:42 20.4 °F /  -6.4 °C 7.4 °F /  -13.7 °C 1008.0 in /  34130.9 hPa WSW 5.6 mph /  9 km/h 5.6 mph /  9 km/h 43 % 0.0 in /  0 mm
22:45 16.8 °F /  -8.4 °C 6.6 °F /  -14.1 °C 1010.0 in /  34198.6 hPa ENE 1.6 mph /  2.6 km/h 4.8 mph /  7.7 km/h 51 % 0.0 in /  0 mm
22:47 20.3 °F /  -6.5 °C 7.3 °F /  -13.7 °C 1008.0 in /  34130.9 hPa SW 5.6 mph /  9 km/h 5.6 mph /  9 km/h 43 % 0.0 in /  0 mm
22:52 20.2 °F /  -6.6 °C 7.6 °F /  -13.6 °C 1008.0 in /  34130.9 hPa SW 5.6 mph /  9 km/h 5.6 mph /  9 km/h 44 % 0.0 in /  0 mm
22:55 16.8 °F /  -8.4 °C 6.6 °F /  -14.1 °C 1010.0 in /  34198.6 hPa ENE 3.2 mph /  5.1 km/h 4.8 mph /  7.7 km/h 51 % 0.0 in /  0 mm
22:57 20.1 °F /  -6.6 °C 7.4 °F /  -13.7 °C 1008.0 in /  34130.9 hPa SW 4.7 mph /  7.6 km/h 4.7 mph /  7.6 km/h 44 % 0.0 in /  0 mm
23:02 20.0 °F /  -6.7 °C 7.7 °F /  -13.5 °C 1008.0 in /  34130.9 hPa WSW 5.8 mph /  9.3 km/h 5.8 mph /  9.3 km/h 45 % 0.0 in /  0 mm
23:05 16.9 °F /  -8.4 °C 6.7 °F /  -14.1 °C 1010.0 in /  34198.6 hPa ENE 4.8 mph /  7.7 km/h 4.8 mph /  7.7 km/h 51 % 0.0 in /  0 mm
23:07 20.0 °F /  -6.7 °C 7.7 °F /  -13.5 °C 1008.0 in /  34130.9 hPa SW 4.7 mph /  7.6 km/h 4.7 mph /  7.6 km/h 45 % 0.0 in /  0 mm
23:12 19.9 °F /  -6.7 °C 7.6 °F /  -13.6 °C 1008.0 in /  34130.9 hPa SSW 5.0 mph /  8 km/h 5.0 mph /  8 km/h 45 % 0.0 in /  0 mm
23:15 16.8 °F /  -8.4 °C 6.9 °F /  -13.9 °C 1010.0 in /  34198.6 hPa ENE 3.2 mph /  5.1 km/h 3.2 mph /  5.1 km/h 52 % 0.0 in /  0 mm
23:17 19.8 °F /  -6.8 °C 7.8 °F /  -13.4 °C 1008.0 in /  34130.9 hPa SW 3.7 mph /  6 km/h 3.7 mph /  6 km/h 46 % 0.0 in /  0 mm
23:22 19.8 °F /  -6.8 °C 7.8 °F /  -13.4 °C 1008.0 in /  34130.9 hPa SW 3.7 mph /  6 km/h 3.7 mph /  6 km/h 46 % 0.0 in /  0 mm
23:25 16.8 °F /  -8.4 °C 6.9 °F /  -13.9 °C 1009.0 in /  34164.7 hPa NE 3.2 mph /  5.1 km/h 4.8 mph /  7.7 km/h 52 % 0.0 in /  0 mm
23:27 19.7 °F /  -6.8 °C 7.7 °F /  -13.5 °C 1009.0 in /  34164.7 hPa SW 3.7 mph /  6 km/h 3.7 mph /  6 km/h 46 % 0.0 in /  0 mm
23:32 19.7 °F /  -6.8 °C 8.1 °F /  -13.3 °C 1009.0 in /  34164.7 hPa West 1.9 mph /  3.1 km/h   47 % 0.0 in /  0 mm
23:35 16.7 °F /  -8.5 °C 6.8 °F /  -14 °C 1009.0 in /  34164.7 hPa Calm   4.8 mph /  7.7 km/h 52 % 0.0 in /  0 mm
23:37 19.7 °F /  -6.8 °C 8.4 °F /  -13.1 °C 1009.0 in /  34164.7 hPa NE 1.9 mph /  3.1 km/h 1.9 mph /  3.1 km/h 48 % 0.0 in /  0 mm
23:42 19.7 °F /  -6.8 °C 8.4 °F /  -13.1 °C 1009.0 in /  34164.7 hPa ENE 3.7 mph /  6 km/h 3.7 mph /  6 km/h 48 % 0.0 in /  0 mm
23:45 16.6 °F /  -8.6 °C 6.7 °F /  -14.1 °C 1010.0 in /  34198.6 hPa Calm   4.8 mph /  7.7 km/h 52 % 0.0 in /  0 mm
23:47 19.7 °F /  -6.8 °C 8.4 °F /  -13.1 °C 1009.0 in /  34164.7 hPa ENE 5.6 mph /  9 km/h 5.6 mph /  9 km/h 48 % 0.0 in /  0 mm
23:52 19.7 °F /  -6.8 °C 8.4 °F /  -13.1 °C 1009.0 in /  34164.7 hPa ENE 3.7 mph /  6 km/h 3.7 mph /  6 km/h 48 % 0.0 in /  0 mm
23:55 16.4 °F /  -8.7 °C 6.5 °F /  -14.2 °C 1010.0 in /  34198.6 hPa NE 3.2 mph /  5.1 km/h 4.8 mph /  7.7 km/h 52 % 0.0 in /  0 mm
23:57 19.6 °F /  -6.9 °C 8.3 °F /  -13.2 °C 1009.0 in /  34164.7 hPa ENE 3.7 mph /  6 km/h 3.7 mph /  6 km/h 48 % 0.0 in /  0 mm
Meteo Sesrovires
Elogis d' Weather Underground - 2 mb

Guio original per  Jim McMurry - jmcmurry@mwt.net Adaptat per a la plantilla per  Wim van der Kuil - Leuven-Template.eu

Trobareu la nostra informacio del temps tambe a:

Weather Underground

AWEKAS